Forks, WA

5:59 PM PST on December 04, 2016 (GMT -0800)
Quillayute | | Change Station

Elev 194 ft 47.94 °N, 124.56 °W | Updated 6 minutes ago

Mostly Cloudy
Mostly Cloudy
40 °F
Feels Like 36 °F
N
6
Wind Variable Wind from Variable

Today
High -- | Low -- °F
--% Chance of Precip.
Yesterday
High -- | Low -- °F
Precip. -- in
Pressure 30.13 in
Visibility 10.0 miles
Clouds Few 2800 ft
Scattered Clouds 4100 ft
Mostly Cloudy 9500 ft
Windchill 36 °F
Dew Point 34 °F
Humidity 79%
Rainfall 0.12 in
Snow Depth Not available.
7:50 AM 4:25 PM
Waxing Crescent, 27% visible
METAR KUIL 050153Z AUTO VRB05KT 10SM FEW028 SCT041 BKN095 04/01 A3012 RMK AO2 SLP202 T00440011
Pressure 30.13 in
Visibility 10.0 miles
Clouds Few 2800 ft
Scattered Clouds 4100 ft
Mostly Cloudy 9500 ft
Windchill 36 °F
Dew Point 34 °F
Humidity 79%
Rainfall 0.12 in
Snow Depth Not available.
7:50 AM 4:25 PM
Waxing Crescent, 27% visible
METAR KUIL 050153Z AUTO VRB05KT 10SM FEW028 SCT041 BKN095 04/01 A3012 RMK AO2 SLP202 T00440011

10-Day Weather Forecast

Almanac

Astronomy

Dec. 04, 2016 Rise Set
Actual Time
Civil Twilight
Nautical Twilight
Astronomical Twilight
Moon
Length of Visible Light
Length of Day
Tomorrow will be .
, % of the Moon is Illuminated

Today's Extremes

State Highs State Lows

Community

WunderPhotos

Upload Photos

1,955,744 photos uploaded!

WunderBlog® & News

Nearby

Air Quality

  Air Quality AQ Index Pollutant
Not available.

Snow Depth

Station Depth Elevation

Earthquake Activity

City Distance Mag. Time & Date
Minimum magnitude displayed is 2.5.

Coastal Water Temperatures

Place Temperature

Stations

Nearby Weather Stations

Station Location Temp. Windchill Dew Point Humidity Wind Precip. Elev Updated Type
                   

Watches & Warnings

There are currently no watches in effect.